Juneau, WI (53039)

5:05 PM CDT on August 30, 2014 (GMT -0500)
Dodge County | Change Station
CLOSE
Current Station
Airport
Location: Juneau,
Elevation: 935 ft
Nearby Weather Stations

Elev 935 ft 43.43 °N, 88.70 °W | Updated 10 minutes ago

Mostly Cloudy
Mostly Cloudy
75 °F
Feels Like 75 °F
N
8
Wind Variable Wind from West
Gusts 17 mph

Today
High -- | Low -- °F
--% Chance of Precip.
Yesterday
High -- | Low -- °F
Precip. -- in
6:16 AM 7:33 PM
Waxing Crescent, 25% visible
Pressure 29.82 in
Visibility 10.0 miles
Clouds Scattered Clouds 2200 ft
Mostly Cloudy 2800 ft
Dew Point 67 °F
Humidity 75%
Rainfall 0.73 in
Snow Depth Not available.
UV 1 out of 12
Pollen 2.90 out of 12
Air Quality Not available.
Flu Activity Not available.
METAR KUNU 302155Z AUTO 26007G15KT 10SM SCT022 BKN028 24/20 A2982 RMK AO2 T02410195

More Conditions Fewer Conditions

Pressure 29.82 in
Visibility 10.0 miles
Clouds Scattered Clouds 2200 ft
Mostly Cloudy 2800 ft
Dew Point 67 °F
Humidity 75%
Rainfall 0.73 in
Snow Depth Not available.
UV 1 out of 12
Pollen 2.90 out of 12
Air Quality Not available.
Flu Activity Not available.
METAR KUNU 302155Z AUTO 26007G15KT 10SM SCT022 BKN028 24/20 A2982 RMK AO2 T02410195

More Conditions Fewer Conditions

Nowcast | as of 4:27 PM CDT on August 30, 2014

Scattered showers and isolated thunderstorms will continue across portions of south central and southeast Wisconsin through 6 PM...then diminish to isolated showers in the early evening. The showers were mainly along and east of a line from Packwaukee in Marquette County...southeast to Jefferson and Racine. All the showers were moving east at 25 mph. The heaviest showers and isolated thunderstorms were near Fond Du Lac and Marystown. Brief heavy rainfall and gusty winds to 25 mph will accompany the heavier showers.

×

10-Day Weather Forecast

Almanac

Astronomy

Aug. 30, 2014 Rise Set
Actual Time 6:16 AM CDT 7:33 PM CDT
Civil Twilight 5:46 AM CDT 8:02 PM CDT
Nautical Twilight 5:11 AM CDT 8:38 PM CDT
Astronomical Twilight 4:33 AM CDT 9:15 PM CDT
Moon 11:13 AM CDT 9:57 PM CDT
Length of Visible Light 14h 15m
Length of Day
13h 16m
Tomorrow will be 2m 50s shorter.
Waxing Crescent, 25% of the Moon is Illuminated
Today
Waxing Crescent
Sep 2
First Quarter
Sep 8
Full
Sep 15
Last Quarter
Sep 24
New

Today's Extremes

State Highs State Lows

Community

WunderPhotos

Upload Photos

1,748,657 photos uploaded!

WunderBlogs® & News

Nearby

Snow Depth

Station Depth Elevation
No new snow has been reported.

Earthquake Activity

City Distance Mag. Time & Date
No recent earthquake activity has been reported nearby.
Minimum magnitude displayed is 2.5.

Coastal Water Temperatures

Place Temperature
No Stations Reporting

Nearby Weather Stations